Time;durP1;ratioP1;P1;durP2;ratioP2;P2;SDS_P1;SDS_P2;PMS_P1;PMS_P2;Temp;Humidity;BMP_temperature;BMP_pressure;BME280_temperature;BME280_humidity;BME280_pressure;Samples;Min_cycle;Max_cycle;Signal;HPM_P1;HPM_P2
2020/12/18 00:01:31;;;;;;;0.10;0.10;;;;;;;0.15;100.00;102093.91;1706873;84;21139;-81
2020/12/18 00:03:59;;;;;;;0.15;0.15;;;;;;;0.16;100.00;102093.40;1706876;84;21606;-81
2020/12/18 00:06:35;;;;;;;8.05;1.20;;;;;;;0.15;100.00;102088.53;1706928;84;21469;-88
2020/12/18 00:09:05;;;;;;;0.00;0.00;;;;;;;0.15;100.00;102091.73;1706801;84;21104;-88
2020/12/18 00:11:34;;;;;;;0.62;0.62;;;;;;;0.14;100.00;102096.25;1707162;84;21138;-88
2020/12/18 00:14:02;;;;;;;0.47;0.47;;;;;;;0.14;100.00;102092.73;1706828;84;21135;-87
2020/12/18 00:16:32;;;;;;;0.20;0.20;;;;;;;0.14;100.00;102096.76;1706942;83;21526;-86
2020/12/18 00:18:58;;;;;;;0.13;0.13;;;;;;;0.14;100.00;102091.37;1706790;82;21593;-86
2020/12/18 00:21:26;;;;;;;0.20;0.20;;;;;;;0.14;100.00;102092.73;1706805;84;21573;-81
2020/12/18 00:23:53;;;;;;;2.08;1.87;;;;;;;0.13;100.00;102091.06;1706845;84;21182;-87
2020/12/18 00:26:21;;;;;;;0.20;0.20;;;;;;;0.13;100.00;102096.44;1707011;84;21190;-81
2020/12/18 00:28:49;;;;;;;0.30;0.30;;;;;;;0.14;100.00;102086.00;1706817;84;21178;-89
2020/12/18 00:31:16;;;;;;;0.17;0.17;;;;;;;0.13;100.00;102077.11;1706830;84;21573;-87
2020/12/18 00:33:44;;;;;;;0.55;0.55;;;;;;;0.13;100.00;102087.02;1706757;84;21126;-87
2020/12/18 00:36:13;;;;;;;1.35;0.40;;;;;;;0.12;100.00;102079.95;1706978;84;21564;-81
2020/12/18 00:38:40;;;;;;;0.10;0.10;;;;;;;0.10;100.00;102080.63;1706975;84;22120;-81
2020/12/18 00:41:08;;;;;;;0.95;0.95;;;;;;;0.12;100.00;102073.23;1721186;81;21219;-88
2020/12/18 00:43:35;;;;;;;1.70;1.22;;;;;;;0.13;100.00;102070.90;1693532;83;21194;-89
2020/12/18 00:46:06;;;;;;;2.40;0.70;;;;;;;0.13;100.00;102066.86;1721831;83;21122;-81
2020/12/18 00:48:34;;;;;;;3.02;1.12;;;;;;;0.13;100.00;102065.01;1693293;83;21147;-80
2020/12/18 00:51:03;;;;;;;0.17;0.17;;;;;;;0.14;100.00;102068.53;1746445;82;21136;-81
2020/12/18 00:53:36;;;;;;;0.98;0.65;;;;;;;0.14;100.00;102066.67;1747377;82;21008;-81
2020/12/18 00:56:09;;;;;;;0.65;0.65;;;;;;;0.15;100.00;102071.06;1747486;82;21167;-85
2020/12/18 00:58:37;;;;;;;1.00;1.00;;;;;;;0.14;100.00;102064.50;1732817;81;21585;-86
2020/12/18 01:01:06;;;;;;;0.28;0.15;;;;;;;0.13;100.00;102064.17;1693153;83;21131;-80
2020/12/18 01:03:33;;;;;;;0.20;0.20;;;;;;;0.11;100.00;102060.30;1721848;83;21146;-80
2020/12/18 01:06:10;;;;;;;0.15;0.15;;;;;;;0.11;100.00;102062.16;1721700;83;21138;-82
2020/12/18 01:08:38;;;;;;;0.45;0.45;;;;;;;0.11;100.00;102066.19;1693184;83;21186;-86
2020/12/18 01:11:06;;;;;;;0.10;0.10;;;;;;;0.09;100.00;102060.97;1693212;83;21119;-81
2020/12/18 01:13:34;;;;;;;0.55;0.55;;;;;;;0.08;100.00;102055.79;1721782;83;21159;-81
2020/12/18 01:16:04;;;;;;;1.22;0.95;;;;;;;0.08;100.00;102054.44;1720206;82;21194;-88
2020/12/18 01:18:33;;;;;;;1.02;1.00;;;;;;;0.08;100.00;102057.13;1760542;81;21130;-81
2020/12/18 01:21:00;;;;;;;1.87;1.55;;;;;;;0.07;100.00;102047.37;1693106;83;21162;-86
2020/12/18 01:23:30;;;;;;;0.10;0.10;;;;;;;0.08;100.00;102053.09;1747230;82;21143;-80
2020/12/18 01:25:59;;;;;;;1.72;1.65;;;;;;;0.08;100.00;102050.41;1760586;81;21553;-81
2020/12/18 01:28:26;;;;;;;0.98;0.37;;;;;;;0.08;100.00;102046.38;1721716;82;21590;-88
2020/12/18 01:30:54;;;;;;;0.70;0.47;;;;;;;0.09;100.00;102049.39;1747548;82;21147;-81
2020/12/18 01:33:22;;;;;;;0.00;0.00;;;;;;;0.07;100.00;102048.20;1747532;82;21474;-87
2020/12/18 01:35:51;;;;;;;0.13;0.13;;;;;;;0.07;100.00;102046.86;1760514;81;21162;-87
2020/12/18 01:38:20;;;;;;;0.20;0.20;;;;;;;0.06;100.00;102041.67;1760435;81;21139;-81
2020/12/18 01:40:49;;;;;;;0.00;0.00;;;;;;;0.06;100.00;102043.85;1734459;81;21530;-89
2020/12/18 01:43:16;;;;;;;0.72;0.33;;;;;;;0.06;100.00;102038.98;1761011;81;21149;-81
2020/12/18 01:45:45;;;;;;;0.53;0.53;;;;;;;0.06;100.00;102035.78;1737831;82;21189;-88
2020/12/18 01:48:14;;;;;;;0.20;0.20;;;;;;;0.05;100.00;102039.98;1698253;83;21170;-81
2020/12/18 01:50:51;;;;;;;0.60;0.60;;;;;;;0.08;100.00;102047.72;1887822;76;28960;-49
2020/12/18 01:53:21;;;;;;;0.10;0.10;;;;;;;0.04;100.00;102044.52;1852748;77;21061;-48
2020/12/18 01:56:04;;;;;;;0.57;0.57;;;;;;;0.08;100.00;102043.69;1887647;76;29052;-50
2020/12/18 01:58:37;;;;;;;0.10;0.10;;;;;;;0.03;100.00;102043.37;1822717;77;21521;-49
2020/12/18 02:01:10;;;;;;;0.10;0.10;;;;;;;0.03;100.00;102047.40;1825091;78;21161;-54
2020/12/18 02:03:39;;;;;;;;;;;;;;;0.02;100.00;102043.02;1827411;77;21243;-51
2020/12/18 02:06:13;;;;;;;0.20;0.20;;;;;;;0.02;100.00;102042.50;1824438;78;20607;-50
2020/12/18 02:08:52;;;;;;;0.78;0.78;;;;;;;0.02;100.00;102042.50;1821841;77;21142;-52
2020/12/18 02:11:27;;;;;;;0.10;0.10;;;;;;;0.01;100.00;102044.03;1817104;78;21095;-51
2020/12/18 02:13:57;;;;;;;1.77;0.75;;;;;;;0.00;100.00;102043.20;1818469;78;21229;-51
2020/12/18 02:16:26;;;;;;;0.72;0.72;;;;;;;-0.02;100.00;102037.98;1818393;78;21130;-51
2020/12/18 02:18:56;;;;;;;3.20;1.45;;;;;;;-0.02;100.00;102040.67;1818963;78;21547;-51
2020/12/18 02:21:26;;;;;;;0.17;0.17;;;;;;;-0.02;100.00;102042.02;1819964;78;21527;-51
2020/12/18 02:23:54;;;;;;;0.68;0.55;;;;;;;-0.03;100.00;102039.48;1819683;78;21087;-51
2020/12/18 02:26:22;;;;;;;0.75;0.75;;;;;;;-0.05;100.00;102041.02;1819853;78;21575;-51
2020/12/18 02:28:50;;;;;;;0.08;0.08;;;;;;;-0.05;100.00;102045.05;1819698;78;21110;-49
2020/12/18 02:31:20;;;;;;;1.35;1.25;;;;;;;-0.04;100.00;102043.20;1819895;78;21129;-51
2020/12/18 02:34:11;;;;;;;0.28;0.28;;;;;;;-0.01;100.00;102041.00;1874898;76;29553;-49
2020/12/18 02:36:41;;;;;;;0.40;0.40;;;;;;;-0.06;100.00;102043.87;1825062;78;21106;-48
2020/12/18 02:39:08;;;;;;;1.87;1.67;;;;;;;-0.07;100.00;102040.86;1791956;78;21142;-52
2020/12/18 02:41:38;;;;;;;0.10;0.10;;;;;;;-0.08;100.00;102041.34;1825038;78;21095;-53
2020/12/18 02:44:17;;;;;;;0.70;0.70;;;;;;;-0.05;100.00;102042.37;1873368;76;29915;-53
2020/12/18 02:46:50;;;;;;;1.45;1.00;;;;;;;-0.11;100.00;102040.34;1779577;80;21168;-52
2020/12/18 02:49:17;;;;;;;1.75;1.25;;;;;;;-0.13;100.00;102049.08;1788717;78;21129;-52
2020/12/18 02:51:47;;;;;;;0.28;0.28;;;;;;;-0.13;100.00;102046.39;1788292;80;21130;-52
2020/12/18 02:54:33;;;;;;;2.02;1.25;;;;;;;-0.10;100.00;102047.41;1815084;76;27718;-54
2020/12/18 02:57:05;;;;;;;0.78;0.75;;;;;;;-0.13;100.00;102044.21;1781922;80;21168;-52
2020/12/18 02:59:34;;;;;;;2.17;0.28;;;;;;;-0.11;100.00;102049.75;1784295;78;21249;-51
2020/12/18 03:02:02;;;;;;;0.35;0.35;;;;;;;-0.09;100.00;102049.59;1785981;80;21580;-51
2020/12/18 03:04:29;;;;;;;3.17;1.27;;;;;;;-0.08;100.00;102052.09;1785878;78;21141;-52
2020/12/18 03:07:01;;;;;;;0.88;0.40;;;;;;;-0.09;100.00;102051.77;1784831;80;27482;-53
2020/12/18 03:09:29;;;;;;;0.70;0.70;;;;;;;-0.09;100.00;102049.59;1785784;78;21122;-52
2020/12/18 03:11:56;;;;;;;0.60;0.47;;;;;;;-0.10;100.00;102051.45;1785812;80;21162;-51
2020/12/18 03:14:24;;;;;;;0.10;0.10;;;;;;;-0.09;100.00;102050.42;1785736;78;21125;-53
2020/12/18 03:17:03;;;;;;;3.75;1.20;;;;;;;-0.06;100.00;102044.70;1887590;75;29102;-50
2020/12/18 03:19:33;;;;;;;0.53;0.53;;;;;;;-0.10;100.00;102050.58;1839191;77;21090;-52
2020/12/18 03:22:03;;;;;;;5.05;0.75;;;;;;;-0.13;100.00;102039.67;1822908;78;21110;-53
2020/12/18 03:24:44;;;;;;;0.20;0.20;;;;;;;-0.13;100.00;102037.49;1824121;77;21111;-52
2020/12/18 03:27:19;;;;;;;0.05;0.05;;;;;;;-0.12;100.00;102040.53;1824466;78;21118;-53
2020/12/18 03:29:48;;;;;;;0.10;0.10;;;;;;;-0.13;100.00;102045.05;1824615;77;21107;-52
2020/12/18 03:32:18;;;;;;;0.30;0.30;;;;;;;-0.14;100.00;102030.45;1825016;78;21553;-53
2020/12/18 03:34:47;;;;;;;0.42;0.42;;;;;;;-0.14;100.00;102033.97;1824541;77;21123;-53
2020/12/18 03:37:20;;;;;;;4.80;0.40;;;;;;;-0.14;100.00;102027.77;1824911;78;21123;-52
2020/12/18 03:39:48;;;;;;;1.12;0.23;;;;;;;-0.15;100.00;102040.34;1819942;77;21095;-53
2020/12/18 03:42:20;;;;;;;0.00;0.00;;;;;;;-0.17;100.00;102038.83;1824668;78;21124;-52
2020/12/18 03:44:47;;;;;;;1.00;1.00;;;;;;;-0.19;100.00;102032.81;1819577;77;21174;-52
2020/12/18 03:47:17;;;;;;;0.53;0.53;;;;;;;-0.22;100.00;102031.30;1822668;78;21166;-54
2020/12/18 03:50:00;;;;;;;1.45;0.65;;;;;;;-0.18;100.00;102024.56;1823892;76;29555;-52
2020/12/18 03:52:29;;;;;;;2.15;0.57;;;;;;;-0.22;100.00;102022.73;1755790;80;21114;-52
2020/12/18 03:54:57;;;;;;;0.62;0.42;;;;;;;-0.22;100.00;102025.42;1785933;78;21587;-52
2020/12/18 03:57:34;;;;;;;0.50;0.50;;;;;;;-0.17;100.00;102015.52;1887521;76;29072;-51
2020/12/18 04:00:18;;;;;;;0.00;0.00;;;;;;;-0.20;100.00;102023.89;1689487;83;21168;-54
2020/12/18 04:02:58;;;;;;;1.07;0.35;;;;;;;-0.13;100.00;102016.00;1847447;76;29431;-48
2020/12/18 04:05:28;;;;;;;0.90;0.90;;;;;;;-0.17;100.00;102022.23;1789323;78;21158;-48
2020/12/18 04:07:55;;;;;;;0.47;0.47;;;;;;;-0.16;100.00;102022.55;1786102;80;21575;-53
2020/12/18 04:10:41;;;;;;;1.05;0.65;;;;;;;-0.17;100.00;102024.91;1786112;78;22111;-51
2020/12/18 04:13:10;;;;;;;0.65;0.65;;;;;;;-0.15;100.00;102025.56;1781702;80;21126;-53
2020/12/18 04:15:41;;;;;;;0.00;0.00;;;;;;;-0.14;100.00;102025.91;1786153;78;21584;-53
2020/12/18 04:18:10;;;;;;;0.23;0.23;;;;;;;-0.14;100.00;102023.23;1786503;80;21145;-53
2020/12/18 04:20:37;;;;;;;0.10;0.10;;;;;;;-0.12;100.00;102028.44;1786147;79;21804;-51
2020/12/18 04:23:11;;;;;;;4.20;0.53;;;;;;;-0.13;100.00;102027.58;1778995;80;21130;-53
2020/12/18 04:25:43;;;;;;;0.20;0.20;;;;;;;-0.12;100.00;102025.24;1781928;80;21122;-51
2020/12/18 04:28:11;;;;;;;0.40;0.28;;;;;;;-0.11;100.00;102028.25;1786169;80;21142;-53
2020/12/18 04:30:38;;;;;;;0.33;0.33;;;;;;;-0.12;100.00;102023.90;1786063;78;21605;-51
2020/12/18 04:33:06;;;;;;;0.40;0.40;;;;;;;-0.12;100.00;102027.93;1783034;80;21592;-52
2020/12/18 04:35:34;;;;;;;0.80;0.78;;;;;;;-0.11;100.00;102026.91;1785882;80;21174;-53
2020/12/18 04:38:13;;;;;;;1.35;0.75;;;;;;;-0.08;100.00;102031.10;1776556;80;21178;-52
2020/12/18 04:40:41;;;;;;;0.85;0.85;;;;;;;-0.07;100.00;102034.14;1754098;81;21161;-51
2020/12/18 04:43:10;;;;;;;0.33;0.33;;;;;;;-0.07;100.00;102043.03;1754080;81;21150;-53
2020/12/18 04:45:39;;;;;;;0.68;0.40;;;;;;;-0.09;100.00;102034.30;1697311;81;21204;-52
2020/12/18 04:48:11;;;;;;;0.03;0.03;;;;;;;-0.09;100.00;102038.84;1754649;81;21129;-53
2020/12/18 04:50:40;;;;;;;0.42;0.42;;;;;;;-0.09;100.00;102041.53;1758936;80;21177;-54
2020/12/18 04:53:10;;;;;;;0.70;0.70;;;;;;;-0.10;100.00;102051.45;1784689;80;21126;-52
2020/12/18 04:55:39;;;;;;;0.75;0.75;;;;;;;-0.12;100.00;102049.42;1729899;80;21106;-53
2020/12/18 04:58:23;;;;;;;0.53;0.53;;;;;;;-0.13;100.00;102049.08;1736344;80;21164;-53
2020/12/18 05:00:56;;;;;;;0.78;0.78;;;;;;;-0.12;100.00;102049.94;1707339;80;21016;-52
2020/12/18 05:03:51;;;;;;;0.10;0.10;;;;;;;-0.09;100.00;102051.77;1829003;76;29099;-49
2020/12/18 05:06:19;;;;;;;0.15;0.15;;;;;;;-0.13;100.00;102051.77;1781114;78;21082;-51
2020/12/18 05:08:46;;;;;;;0.05;0.05;;;;;;;-0.13;100.00;102054.95;1786153;78;21141;-49
2020/12/18 05:11:26;;;;;;;1.32;0.50;;;;;;;-0.13;100.00;102061.17;1800424;78;21517;-50
2020/12/18 05:13:55;;;;;;;0.28;0.28;;;;;;;-0.10;100.00;102058.64;1796538;78;21559;-51
2020/12/18 05:16:24;;;;;;;0.42;0.42;;;;;;;-0.11;100.00;102061.84;1799767;78;21583;-52
2020/12/18 05:19:22;;;;;;;0.35;0.35;;;;;;;-0.07;100.00;102059.16;1832719;76;29092;-49
2020/12/18 05:21:54;;;;;;;0.42;0.42;;;;;;;-0.12;100.00;102060.69;1738128;80;21130;-49
2020/12/18 05:24:24;;;;;;;1.45;0.85;;;;;;;-0.13;100.00;102071.08;1715504;83;21178;-49
2020/12/18 05:26:52;;;;;;;0.00;0.00;;;;;;;-0.13;100.00;102066.54;1672094;83;21194;-50
2020/12/18 05:29:19;;;;;;;0.05;0.05;;;;;;;-0.13;100.00;102067.05;1724796;83;21157;-50
2020/12/18 05:32:01;;;;;;;0.42;0.42;;;;;;;-0.09;100.00;102067.06;1888005;76;29078;-51
2020/12/18 05:34:31;;;;;;;0.28;0.28;;;;;;;-0.14;100.00;102070.77;1840703;77;21170;-50
2020/12/18 05:37:01;;;;;;;0.10;0.10;;;;;;;-0.14;100.00;102073.45;1799949;78;21164;-49
2020/12/18 05:39:40;;;;;;;0.10;0.10;;;;;;;-0.10;100.00;102068.91;1829655;76;29068;-51
2020/12/18 05:42:09;;;;;;;0.13;0.13;;;;;;;-0.13;100.00;102078.63;1785968;80;21114;-51
2020/12/18 05:44:39;;;;;;;1.02;0.25;;;;;;;-0.15;100.00;102073.92;1785930;78;21117;-50
2020/12/18 05:47:29;;;;;;;1.75;0.85;;;;;;;-0.12;100.00;102078.16;1808348;77;29561;-49
2020/12/18 05:49:57;;;;;;;2.08;0.53;;;;;;;-0.15;100.00;102079.81;1753675;80;21127;-51
2020/12/18 05:52:26;;;;;;;0.23;0.23;;;;;;;-0.15;100.00;102081.98;1748661;81;22037;-48
2020/12/18 05:55:14;;;;;;;1.25;0.20;;;;;;;-0.10;100.00;102081.48;1862139;75;29557;-50
2020/12/18 05:57:46;;;;;;;0.35;0.35;;;;;;;-0.14;100.00;102086.38;1853033;77;21206;-52
2020/12/18 06:00:16;;;;;;;0.40;0.40;;;;;;;-0.15;100.00;102083.84;1827032;76;21145;-51
2020/12/18 06:03:00;;;;;;;0.80;0.80;;;;;;;-0.16;100.00;102088.38;1823994;78;21157;-51
2020/12/18 06:05:38;;;;;;;1.00;0.37;;;;;;;-0.12;100.00;102088.39;1844994;76;29534;-49
2020/12/18 06:08:17;;;;;;;1.02;0.35;;;;;;;-0.15;100.00;102093.25;1812583;79;21162;-49
2020/12/18 06:10:53;;;;;;;0.00;0.00;;;;;;;-0.17;100.00;102085.85;1815148;79;21157;-49
2020/12/18 06:13:25;;;;;;;0.30;0.30;;;;;;;-0.16;100.00;102089.73;1785320;79;21134;-51
2020/12/18 06:16:17;;;;;;;0.05;0.05;;;;;;;-0.10;100.00;102093.58;1847947;76;29014;-52
2020/12/18 06:18:54;;;;;;;0.10;0.10;;;;;;;-0.13;100.00;102088.03;1730962;80;21142;-52
2020/12/18 06:21:30;;;;;;;0.00;0.00;;;;;;;-0.13;100.00;102092.06;1754039;81;21134;-50
2020/12/18 06:23:58;;;;;;;0.88;0.85;;;;;;;-0.14;100.00;102090.41;1751843;81;21115;-51
2020/12/18 06:26:37;;;;;;;0.00;0.00;;;;;;;-0.08;100.00;102103.15;1847614;76;29547;-50
2020/12/18 06:29:17;;;;;;;0.33;0.25;;;;;;;-0.12;100.00;102100.48;1804789;78;21137;-50
2020/12/18 06:32:25;;;;;;;0.13;0.13;;;;;;;-0.13;100.00;102105.50;1785847;80;21149;-49
2020/12/18 06:35:36;;;;;;;0.42;0.42;;;;;;;-0.10;100.00;102102.50;1800649;75;29169;-51
2020/12/18 06:38:20;;;;;;;0.75;0.75;;;;;;;-0.12;100.00;102106.37;1746862;81;21178;-52
2020/12/18 06:40:59;;;;;;;0.98;0.98;;;;;;;-0.06;100.00;102105.17;1847594;76;29539;-49
2020/12/18 06:43:35;;;;;;;1.07;0.10;;;;;;;-0.11;100.00;102106.19;1813565;78;21122;-50
2020/12/18 06:46:22;;;;;;;0.13;0.13;;;;;;;-0.08;100.00;102099.62;1849430;77;29462;-48
2020/12/18 06:49:07;;;;;;;0.15;0.15;;;;;;;-0.12;100.00;102105.86;1813651;78;21186;-48
2020/12/18 06:51:53;;;;;;;1.17;1.10;;;;;;;-0.10;100.00;102102.98;1794237;79;21158;-49
2020/12/18 06:54:35;;;;;;;0.20;0.20;;;;;;;-0.05;100.00;102106.00;1830028;76;29066;-50
2020/12/18 06:57:20;;;;;;;4.95;1.05;;;;;;;-0.09;100.00;102106.86;1785384;80;21118;-50
2020/12/18 06:59:50;;;;;;;0.10;0.10;;;;;;;-0.08;100.00;102112.55;1785797;78;21189;-51
2020/12/18 07:02:36;;;;;;;0.00;0.00;;;;;;;-0.06;100.00;102116.43;1785777;80;21117;-52
2020/12/18 07:05:03;;;;;;;0.10;0.10;;;;;;;-0.06;100.00;102111.89;1785921;78;21130;-51
2020/12/18 07:07:41;;;;;;;0.00;0.00;;;;;;;-0.05;100.00;102109.55;1756024;80;21190;-51
2020/12/18 07:10:09;;;;;;;0.00;0.00;;;;;;;-0.05;100.00;102108.69;1786071;78;21125;-51
2020/12/18 07:12:36;;;;;;;2.75;0.70;;;;;;;-0.05;100.00;102112.24;1755540;80;21146;-51
2020/12/18 07:15:05;;;;;;;0.23;0.23;;;;;;;-0.04;100.00;102106.36;1785695;78;21146;-52
2020/12/18 07:17:33;;;;;;;0.23;0.23;;;;;;;-0.03;100.00;102108.86;1785756;80;21165;-52
2020/12/18 07:20:00;;;;;;;0.00;0.00;;;;;;;-0.04;100.00;102108.53;1785761;78;21154;-50
2020/12/18 07:22:28;;;;;;;0.13;0.13;;;;;;;-0.05;100.00;102104.66;1785948;80;21133;-51
2020/12/18 07:24:59;;;;;;;0.57;0.57;;;;;;;-0.05;100.00;102106.87;1781833;78;21544;-50
2020/12/18 07:27:26;;;;;;;0.30;0.30;;;;;;;-0.02;100.00;102108.37;1785690;80;21158;-50
2020/12/18 07:29:54;;;;;;;0.57;0.45;;;;;;;0.00;100.00;102110.39;1785752;78;21107;-51
2020/12/18 07:32:22;;;;;;;0.30;0.30;;;;;;;0.01;100.00;102111.23;1785747;80;21138;-50
2020/12/18 07:35:06;;;;;;;3.77;1.85;;;;;;;0.02;100.00;102108.36;1785800;78;21193;-50
2020/12/18 07:37:40;;;;;;;0.42;0.42;;;;;;;0.07;100.00;102111.88;1848192;76;29542;-51
2020/12/18 07:40:07;;;;;;;0.30;0.30;;;;;;;0.03;100.00;102114.59;1794215;78;21142;-55
2020/12/18 07:42:41;;;;;;;0.30;0.30;;;;;;;0.03;100.00;102111.91;1786161;80;21166;-55
2020/12/18 07:45:09;;;;;;;0.85;0.62;;;;;;;0.06;100.00;102122.31;1786079;78;21158;-55
2020/12/18 07:47:39;;;;;;;0.55;0.55;;;;;;;0.08;100.00;102118.95;1786193;80;21157;-55
2020/12/18 07:50:07;;;;;;;0.37;0.37;;;;;;;0.10;100.00;102121.81;1786208;78;21130;-55
2020/12/18 07:52:35;;;;;;;0.13;0.13;;;;;;;0.12;100.00;102121.62;1785941;80;21117;-55
2020/12/18 07:55:03;;;;;;;0.50;0.50;;;;;;;0.12;100.00;102121.11;1785866;78;21556;-56
2020/12/18 07:57:32;;;;;;;0.00;0.00;;;;;;;0.13;100.00;102119.28;1785666;80;21177;-55
2020/12/18 08:00:08;;;;;;;0.30;0.30;;;;;;;0.15;100.00;102121.30;1785850;78;21114;-56
2020/12/18 08:02:39;;;;;;;0.55;0.55;;;;;;;0.15;100.00;102119.96;1783576;80;21154;-55
2020/12/18 08:05:07;;;;;;;0.00;0.00;;;;;;;0.16;100.00;102121.63;1785814;78;21110;-55
2020/12/18 08:07:34;;;;;;;0.20;0.20;;;;;;;0.16;100.00;102121.11;1785691;80;21134;-55
2020/12/18 08:10:03;;;;;;;0.65;0.53;;;;;;;0.18;100.00;102116.41;1755505;80;21461;-56
2020/12/18 08:12:30;;;;;;;1.52;0.65;;;;;;;0.21;100.00;102121.45;1785574;80;21490;-55
2020/12/18 08:15:11;;;;;;;0.10;0.10;;;;;;;0.23;100.00;102116.42;1783511;80;21435;-55
2020/12/18 08:17:41;;;;;;;0.53;0.20;;;;;;;0.24;100.00;102117.58;1767019;80;21118;-55
2020/12/18 08:20:11;;;;;;;3.75;0.37;;;;;;;0.27;100.00;102117.22;1777069;78;21154;-55
2020/12/18 08:22:43;;;;;;;0.00;0.00;;;;;;;0.30;100.00;102103.47;1785282;80;21552;-56
2020/12/18 08:25:12;;;;;;;2.67;0.55;;;;;;;0.35;100.00;102101.09;1785678;78;21129;-55
2020/12/18 08:27:49;;;;;;;0.85;0.85;;;;;;;0.40;100.00;102101.42;1780807;80;21129;-55
2020/12/18 08:30:17;;;;;;;3.05;2.08;;;;;;;0.42;100.00;102100.75;1785677;80;21158;-55
2020/12/18 08:32:54;;;;;;;2.20;0.55;;;;;;;0.45;100.00;102103.59;1779881;80;21651;-55
2020/12/18 08:35:22;;;;;;;0.25;0.25;;;;;;;0.51;100.00;102103.41;1784953;80;21127;-55
2020/12/18 08:37:50;;;;;;;1.25;0.42;;;;;;;0.53;100.00;102104.08;1785052;79;21437;-55
2020/12/18 08:40:21;;;;;;;1.07;0.65;;;;;;;0.55;100.00;102103.41;1785381;78;21137;-55
2020/12/18 08:43:00;;;;;;;0.42;0.42;;;;;;;0.56;100.00;102101.87;1791210;78;21130;-55
2020/12/18 08:45:28;;;;;;;0.00;0.00;;;;;;;0.58;100.00;102101.20;1786054;80;21565;-55
2020/12/18 08:47:56;;;;;;;0.55;0.53;;;;;;;0.62;100.00;102101.70;1785732;80;21122;-55
2020/12/18 08:50:23;;;;;;;0.23;0.23;;;;;;;0.63;100.00;102096.64;1785516;80;21118;-55
2020/12/18 08:52:51;;;;;;;0.00;0.00;;;;;;;0.63;100.00;102094.78;1785311;80;21122;-55
2020/12/18 08:55:21;;;;;;;0.00;0.00;;;;;;;0.66;100.00;102091.42;1785381;80;21139;-55
2020/12/18 08:57:48;;;;;;;0.20;0.20;;;;;;;0.68;100.00;102080.81;1784290;80;21162;-55
2020/12/18 09:00:17;;;;;;;0.10;0.10;;;;;;;0.71;100.00;102087.19;1755071;80;21141;-55
2020/12/18 09:05:35;;;;;;;0.10;0.10;;;;;;;0.81;100.00;102083.78;1815730;76;29074;-53
2020/12/18 09:10:59;;;;;;;0.10;0.10;;;;;;;0.85;100.00;102083.77;1873400;76;29344;-53
2020/12/18 09:16:07;;;;;;;0.08;0.08;;;;;;;0.90;100.00;102085.11;1847754;76;29097;-53
2020/12/18 09:18:42;;;;;;;0.30;0.30;;;;;;;0.85;100.00;102085.12;1812006;78;21568;-53
2020/12/18 09:21:14;;;;;;;0.55;0.55;;;;;;;0.84;100.00;102085.28;1788295;78;21572;-53
2020/12/18 09:23:51;;;;;;;0.50;0.10;;;;;;;0.90;100.00;102078.38;1840104;76;29494;-53
2020/12/18 09:26:26;;;;;;;0.80;0.60;;;;;;;0.86;100.00;102081.91;1778457;80;21552;-54
2020/12/18 09:28:54;;;;;;;0.20;0.20;;;;;;;0.90;100.00;102077.03;1784258;78;21158;-54
2020/12/18 09:31:23;;;;;;;0.20;0.20;;;;;;;0.90;100.00;102071.66;1777422;80;21204;-54
2020/12/18 09:33:51;;;;;;;1.75;0.95;;;;;;;0.93;100.00;102080.71;1778967;80;21134;-54
2020/12/18 09:36:19;;;;;;;0.10;0.10;;;;;;;0.95;100.00;102088.11;1786038;80;21090;-54
2020/12/18 09:38:54;;;;;;;0.33;0.33;;;;;;;0.94;100.00;102081.03;1777721;78;21738;-54
2020/12/18 09:41:22;;;;;;;0.72;0.72;;;;;;;0.95;100.00;102078.69;1785153;80;21674;-53
2020/12/18 09:43:50;;;;;;;0.65;0.65;;;;;;;0.94;100.00;102081.03;1778218;80;21529;-54
2020/12/18 09:46:23;;;;;;;0.40;0.40;;;;;;;0.91;100.00;102085.42;1778225;80;21114;-54
2020/12/18 09:48:49;;;;;;;0.30;0.30;;;;;;;0.91;100.00;102081.39;1785964;80;21090;-54
2020/12/18 09:51:19;;;;;;;1.57;1.47;;;;;;;0.90;100.00;102072.48;1786116;80;21142;-53
2020/12/18 09:53:46;;;;;;;0.00;0.00;;;;;;;0.87;100.00;102068.80;1785926;80;21129;-54
2020/12/18 09:56:14;;;;;;;1.07;1.00;;;;;;;0.86;100.00;102071.98;1785588;80;21573;-54
2020/12/18 09:58:43;;;;;;;0.93;0.93;;;;;;;0.85;100.00;102071.66;1785736;78;21249;-54
2020/12/18 10:01:16;;;;;;;0.30;0.30;;;;;;;0.87;100.00;102071.50;1785747;80;21117;-54
2020/12/18 10:03:45;;;;;;;0.50;0.30;;;;;;;0.89;100.00;102059.19;1784033;78;21149;-54
2020/12/18 10:06:13;;;;;;;1.12;1.02;;;;;;;0.90;100.00;102056.84;1777203;79;21227;-54
2020/12/18 10:08:40;;;;;;;0.33;0.33;;;;;;;0.90;100.00;102056.84;1776700;79;21212;-54
2020/12/18 10:11:10;;;;;;;3.20;0.53;;;;;;;0.89;100.00;102059.19;1754607;81;21146;-54
2020/12/18 10:13:38;;;;;;;0.42;0.42;;;;;;;0.90;100.00;102055.50;1754553;80;21348;-54
2020/12/18 10:16:08;;;;;;;3.58;0.78;;;;;;;0.90;100.00;102059.54;1754553;81;21118;-54
2020/12/18 10:18:35;;;;;;;0.35;0.35;;;;;;;0.91;100.00;102057.16;1761198;78;21142;-54
2020/12/18 10:21:03;;;;;;;0.30;0.30;;;;;;;0.93;100.00;102056.48;1785353;80;21173;-54
2020/12/18 10:23:30;;;;;;;2.17;0.47;;;;;;;0.95;100.00;102052.60;1785690;78;21402;-54
2020/12/18 10:25:58;;;;;;;0.40;0.15;;;;;;;0.99;100.00;102053.08;1784560;80;21732;-53
2020/12/18 10:28:26;;;;;;;2.30;1.02;;;;;;;1.00;100.00;102050.73;1806169;78;21483;-53
2020/12/18 10:30:56;;;;;;;0.20;0.20;;;;;;;1.00;99.82;102055.60;1783425;80;21213;-53
2020/12/18 10:33:23;;;;;;;0.08;0.08;;;;;;;1.00;99.59;102056.11;1780666;78;21173;-53
2020/12/18 10:35:51;;;;;;;0.45;0.45;;;;;;;0.98;99.51;102044.68;1785294;80;21122;-53
2020/12/18 10:38:19;;;;;;;0.30;0.30;;;;;;;0.96;99.34;102046.70;1784780;80;21130;-54
2020/12/18 10:40:46;;;;;;;1.35;0.90;;;;;;;0.97;99.32;102044.36;1785280;80;21143;-54
2020/12/18 10:43:14;;;;;;;0.82;0.82;;;;;;;0.95;99.19;102047.73;1763853;80;21170;-54
2020/12/18 10:45:42;;;;;;;0.82;0.82;;;;;;;0.93;99.09;102044.38;1784181;78;21416;-53
2020/12/18 10:48:10;;;;;;;0.93;0.88;;;;;;;0.91;99.00;102041.02;1767528;80;21122;-54
2020/12/18 10:50:38;;;;;;;2.15;1.15;;;;;;;0.91;98.97;102038.33;1777493;80;21157;-53
2020/12/18 10:53:05;;;;;;;0.60;0.45;;;;;;;0.90;98.90;102038.00;1785150;80;21154;-53
2020/12/18 10:55:34;;;;;;;0.10;0.10;;;;;;;0.89;98.66;102038.52;1784978;80;21130;-53
2020/12/18 10:58:01;;;;;;;0.10;0.10;;;;;;;0.86;98.60;102032.95;1784328;80;21000;-53
2020/12/18 11:00:29;;;;;;;0.28;0.28;;;;;;;0.86;98.72;102038.84;1785080;80;21142;-54
2020/12/18 11:02:57;;;;;;;0.33;0.33;;;;;;;0.86;98.66;102028.91;1782934;80;21134;-53
2020/12/18 11:05:24;;;;;;;0.23;0.23;;;;;;;0.86;98.51;102036.98;1785053;80;21414;-53
2020/12/18 11:07:52;;;;;;;0.30;0.30;;;;;;;0.88;98.44;102046.76;1785117;80;21173;-53
2020/12/18 11:10:21;;;;;;;0.62;0.62;;;;;;;0.87;98.43;102045.92;1768429;80;21149;-54
2020/12/18 11:12:48;;;;;;;0.50;0.30;;;;;;;0.87;98.41;102040.55;1780101;80;21578;-53
2020/12/18 11:15:16;;;;;;;0.10;0.10;;;;;;;0.85;98.34;102039.36;1773501;80;21115;-53
2020/12/18 11:17:44;;;;;;;0.33;0.33;;;;;;;0.86;98.26;102041.02;1776269;80;21560;-54
2020/12/18 11:20:12;;;;;;;1.75;0.42;;;;;;;0.85;98.21;102038.02;1784909;80;21145;-53
2020/12/18 11:22:39;;;;;;;0.25;0.25;;;;;;;0.84;98.15;102042.22;1786897;79;21157;-54
2020/12/18 11:25:07;;;;;;;0.42;0.42;;;;;;;0.83;98.15;102037.34;1775296;78;21119;-53
2020/12/18 11:27:34;;;;;;;0.37;0.37;;;;;;;0.83;98.09;102035.17;1770128;79;21150;-53
2020/12/18 11:30:03;;;;;;;1.30;1.00;;;;;;;0.82;98.09;102035.69;1786139;78;21166;-53
2020/12/18 11:32:30;;;;;;;0.30;0.28;;;;;;;0.82;98.01;102035.69;1785707;79;21109;-53
2020/12/18 11:34:58;;;;;;;2.25;1.65;;;;;;;0.81;97.98;102035.34;1791689;79;21551;-54
2020/12/18 11:37:26;;;;;;;1.60;0.45;;;;;;;0.81;97.96;102031.81;1784029;79;21525;-53
2020/12/18 11:39:53;;;;;;;0.90;0.82;;;;;;;0.82;98.01;102032.16;1766706;79;21161;-54
2020/12/18 11:42:21;;;;;;;0.23;0.23;;;;;;;0.84;98.02;102026.94;1773102;79;21165;-53
2020/12/18 11:44:49;;;;;;;0.47;0.47;;;;;;;0.85;97.95;102025.91;1760438;79;21539;-53
2020/12/18 11:47:16;;;;;;;2.58;0.82;;;;;;;0.85;97.85;102029.94;1787674;79;21131;-53
2020/12/18 11:49:44;;;;;;;1.25;0.75;;;;;;;0.88;97.81;102035.99;1792499;79;21141;-53